<?xml version="1.0" encoding="UTF-8" standalone="no" ?>
<gpx xmlns="http://www.topografix.com/GPX/1/1" xmlns:xsi="http://www.w3.org/2001/XMLSchema-instance" xsi:schemaLocation="http://www.topografix.com/GPX/1/1 http://www.topografix.com/GPX/1/1/gpx.xsd" version="1.1" creator="VisuGPX - https://www.visugpx.com">
  <metadata>
    <name>Kayak sur le lac de Sainte-Croix</name>
    <desc><![CDATA[Depuis Sainte-Croix de Verdon]]></desc>
  </metadata>
  <trk>
    <name><![CDATA[Kayak au lac de Sainte-Croix]]></name>
    <trkseg>
      <trkpt lat="43.75999" lon="6.15814">
        <ele>471</ele>
        <time>2011-07-10T10:30:47Z</time>
      </trkpt>
      <trkpt lat="43.7599" lon="6.15815">
        <ele>471</ele>
        <time>2011-07-10T10:30:57.002Z</time>
      </trkpt>
      <trkpt lat="43.75981" lon="6.15817">
        <ele>470</ele>
        <time>2011-07-10T10:31:07.001Z</time>
      </trkpt>
      <trkpt lat="43.75976" lon="6.15828">
        <ele>471</ele>
        <time>2011-07-10T10:31:17Z</time>
      </trkpt>
      <trkpt lat="43.7597" lon="6.15841">
        <ele>471</ele>
        <time>2011-07-10T10:31:27Z</time>
      </trkpt>
      <trkpt lat="43.75964" lon="6.15855">
        <ele>471</ele>
        <time>2011-07-10T10:31:37.001Z</time>
      </trkpt>
      <trkpt lat="43.7596" lon="6.1587">
        <ele>471</ele>
        <time>2011-07-10T10:31:46.998Z</time>
      </trkpt>
      <trkpt lat="43.75952" lon="6.15885">
        <ele>470</ele>
        <time>2011-07-10T10:31:56.998Z</time>
      </trkpt>
      <trkpt lat="43.75947" lon="6.15901">
        <ele>470</ele>
        <time>2011-07-10T10:32:07.001Z</time>
      </trkpt>
      <trkpt lat="43.75944" lon="6.15911">
        <ele>470</ele>
        <time>2011-07-10T10:32:17.001Z</time>
      </trkpt>
      <trkpt lat="43.75933" lon="6.15918">
        <ele>470</ele>
        <time>2011-07-10T10:32:26.998Z</time>
      </trkpt>
      <trkpt lat="43.75918" lon="6.15921">
        <ele>470</ele>
        <time>2011-07-10T10:32:36.998Z</time>
      </trkpt>
      <trkpt lat="43.75912" lon="6.15934">
        <ele>470</ele>
        <time>2011-07-10T10:32:47.001Z</time>
      </trkpt>
      <trkpt lat="43.75908" lon="6.15943">
        <ele>470</ele>
        <time>2011-07-10T10:32:52Z</time>
      </trkpt>
      <trkpt lat="43.75905" lon="6.15953">
        <ele>470</ele>
        <time>2011-07-10T10:32:57.001Z</time>
      </trkpt>
      <trkpt lat="43.75901" lon="6.15967">
        <ele>470</ele>
        <time>2011-07-10T10:33:07.005Z</time>
      </trkpt>
      <trkpt lat="43.75904" lon="6.15982">
        <ele>470</ele>
        <time>2011-07-10T10:33:22.002Z</time>
      </trkpt>
      <trkpt lat="43.75914" lon="6.15995">
        <ele>470</ele>
        <time>2011-07-10T10:33:32Z</time>
      </trkpt>
      <trkpt lat="43.75919" lon="6.16002">
        <ele>470</ele>
        <time>2011-07-10T10:33:36.997Z</time>
      </trkpt>
      <trkpt lat="43.75925" lon="6.16007">
        <ele>470</ele>
        <time>2011-07-10T10:33:42.002Z</time>
      </trkpt>
      <trkpt lat="43.75931" lon="6.16012">
        <ele>470</ele>
        <time>2011-07-10T10:33:47.001Z</time>
      </trkpt>
      <trkpt lat="43.75936" lon="6.16018">
        <ele>470</ele>
        <time>2011-07-10T10:33:51.998Z</time>
      </trkpt>
      <trkpt lat="43.75942" lon="6.16025">
        <ele>470</ele>
        <time>2011-07-10T10:33:57.001Z</time>
      </trkpt>
      <trkpt lat="43.75947" lon="6.16033">
        <ele>470</ele>
        <time>2011-07-10T10:34:02.002Z</time>
      </trkpt>
      <trkpt lat="43.75952" lon="6.16042">
        <ele>470</ele>
        <time>2011-07-10T10:34:07.004Z</time>
      </trkpt>
      <trkpt lat="43.75957" lon="6.16056">
        <ele>470</ele>
        <time>2011-07-10T10:34:17Z</time>
      </trkpt>
      <trkpt lat="43.75954" lon="6.16072">
        <ele>470</ele>
        <time>2011-07-10T10:34:42Z</time>
      </trkpt>
      <trkpt lat="43.75959" lon="6.16085">
        <ele>470</ele>
        <time>2011-07-10T10:34:52Z</time>
      </trkpt>
      <trkpt lat="43.75965" lon="6.16093">
        <ele>470</ele>
        <time>2011-07-10T10:34:57Z</time>
      </trkpt>
      <trkpt lat="43.75971" lon="6.16098">
        <ele>470</ele>
        <time>2011-07-10T10:35:02Z</time>
      </trkpt>
      <trkpt lat="43.75982" lon="6.16098">
        <ele>470</ele>
        <time>2011-07-10T10:35:12Z</time>
      </trkpt>
      <trkpt lat="43.75996" lon="6.16099">
        <ele>470</ele>
        <time>2011-07-10T10:35:21.998Z</time>
      </trkpt>
      <trkpt lat="43.76003" lon="6.16105">
        <ele>470</ele>
        <time>2011-07-10T10:35:26.998Z</time>
      </trkpt>
      <trkpt lat="43.76008" lon="6.16113">
        <ele>470</ele>
        <time>2011-07-10T10:35:32.004Z</time>
      </trkpt>
      <trkpt lat="43.76012" lon="6.16122">
        <ele>470</ele>
        <time>2011-07-10T10:35:36.997Z</time>
      </trkpt>
      <trkpt lat="43.76018" lon="6.16131">
        <ele>470</ele>
        <time>2011-07-10T10:35:42.001Z</time>
      </trkpt>
      <trkpt lat="43.76023" lon="6.1614">
        <ele>470</ele>
        <time>2011-07-10T10:35:47Z</time>
      </trkpt>
      <trkpt lat="43.76029" lon="6.16149">
        <ele>470</ele>
        <time>2011-07-10T10:35:51.998Z</time>
      </trkpt>
      <trkpt lat="43.76035" lon="6.16158">
        <ele>470</ele>
        <time>2011-07-10T10:35:56.997Z</time>
      </trkpt>
      <trkpt lat="43.76039" lon="6.16168">
        <ele>470</ele>
        <time>2011-07-10T10:36:02.001Z</time>
      </trkpt>
      <trkpt lat="43.76044" lon="6.16178">
        <ele>470</ele>
        <time>2011-07-10T10:36:07.001Z</time>
      </trkpt>
      <trkpt lat="43.76048" lon="6.16187">
        <ele>470</ele>
        <time>2011-07-10T10:36:12.002Z</time>
      </trkpt>
      <trkpt lat="43.76053" lon="6.16196">
        <ele>470</ele>
        <time>2011-07-10T10:36:17.001Z</time>
      </trkpt>
      <trkpt lat="43.76058" lon="6.16204">
        <ele>470</ele>
        <time>2011-07-10T10:36:22.005Z</time>
      </trkpt>
      <trkpt lat="43.76063" lon="6.16211">
        <ele>470</ele>
        <time>2011-07-10T10:36:27Z</time>
      </trkpt>
      <trkpt lat="43.7607" lon="6.16226">
        <ele>470</ele>
        <time>2011-07-10T10:36:36.995Z</time>
      </trkpt>
      <trkpt lat="43.76074" lon="6.16235">
        <ele>470</ele>
        <time>2011-07-10T10:36:42.001Z</time>
      </trkpt>
      <trkpt lat="43.76079" lon="6.16244">
        <ele>470</ele>
        <time>2011-07-10T10:36:47Z</time>
      </trkpt>
      <trkpt lat="43.76083" lon="6.16252">
        <ele>470</ele>
        <time>2011-07-10T10:36:52Z</time>
      </trkpt>
      <trkpt lat="43.76088" lon="6.1626">
        <ele>470</ele>
        <time>2011-07-10T10:36:56.995Z</time>
      </trkpt>
      <trkpt lat="43.76093" lon="6.16268">
        <ele>470</ele>
        <time>2011-07-10T10:37:01.998Z</time>
      </trkpt>
      <trkpt lat="43.76099" lon="6.16276">
        <ele>470</ele>
        <time>2011-07-10T10:37:07.002Z</time>
      </trkpt>
      <trkpt lat="43.76104" lon="6.16284">
        <ele>470</ele>
        <time>2011-07-10T10:37:12.001Z</time>
      </trkpt>
      <trkpt lat="43.76109" lon="6.16293">
        <ele>470</ele>
        <time>2011-07-10T10:37:17Z</time>
      </trkpt>
      <trkpt lat="43.76114" lon="6.16303">
        <ele>470</ele>
        <time>2011-07-10T10:37:22.005Z</time>
      </trkpt>
      <trkpt lat="43.76121" lon="6.16313">
        <ele>470</ele>
        <time>2011-07-10T10:37:27Z</time>
      </trkpt>
      <trkpt lat="43.76129" lon="6.1632">
        <ele>470</ele>
        <time>2011-07-10T10:37:31.997Z</time>
      </trkpt>
      <trkpt lat="43.76137" lon="6.16325">
        <ele>470</ele>
        <time>2011-07-10T10:37:37Z</time>
      </trkpt>
      <trkpt lat="43.76145" lon="6.1633">
        <ele>470</ele>
        <time>2011-07-10T10:37:42Z</time>
      </trkpt>
      <trkpt lat="43.76153" lon="6.16337">
        <ele>470</ele>
        <time>2011-07-10T10:37:47.001Z</time>
      </trkpt>
      <trkpt lat="43.76156" lon="6.16345">
        <ele>470</ele>
        <time>2011-07-10T10:37:52.001Z</time>
      </trkpt>
      <trkpt lat="43.76155" lon="6.16362">
        <ele>470</ele>
        <time>2011-07-10T10:38:01.994Z</time>
      </trkpt>
      <trkpt lat="43.76151" lon="6.16372">
        <ele>470</ele>
        <time>2011-07-10T10:38:07Z</time>
      </trkpt>
      <trkpt lat="43.76146" lon="6.1638">
        <ele>470</ele>
        <time>2011-07-10T10:38:11.998Z</time>
      </trkpt>
      <trkpt lat="43.76142" lon="6.16389">
        <ele>470</ele>
        <time>2011-07-10T10:38:17.001Z</time>
      </trkpt>
      <trkpt lat="43.76142" lon="6.16406">
        <ele>470</ele>
        <time>2011-07-10T10:38:26.998Z</time>
      </trkpt>
      <trkpt lat="43.76143" lon="6.16423">
        <ele>470</ele>
        <time>2011-07-10T10:38:36.998Z</time>
      </trkpt>
      <trkpt lat="43.76146" lon="6.16445">
        <ele>470</ele>
        <time>2011-07-10T10:38:56.998Z</time>
      </trkpt>
      <trkpt lat="43.76148" lon="6.16465">
        <ele>470</ele>
        <time>2011-07-10T10:39:06.998Z</time>
      </trkpt>
      <trkpt lat="43.7615" lon="6.16476">
        <ele>470</ele>
        <time>2011-07-10T10:39:12.002Z</time>
      </trkpt>
      <trkpt lat="43.76153" lon="6.16487">
        <ele>470</ele>
        <time>2011-07-10T10:39:16.998Z</time>
      </trkpt>
      <trkpt lat="43.76157" lon="6.16499">
        <ele>470</ele>
        <time>2011-07-10T10:39:21.995Z</time>
      </trkpt>
      <trkpt lat="43.76159" lon="6.1651">
        <ele>470</ele>
        <time>2011-07-10T10:39:26.995Z</time>
      </trkpt>
      <trkpt lat="43.76164" lon="6.1652">
        <ele>470</ele>
        <time>2011-07-10T10:39:32.001Z</time>
      </trkpt>
      <trkpt lat="43.76169" lon="6.16529">
        <ele>470</ele>
        <time>2011-07-10T10:39:37.002Z</time>
      </trkpt>
      <trkpt lat="43.76173" lon="6.16539">
        <ele>470</ele>
        <time>2011-07-10T10:39:42.001Z</time>
      </trkpt>
      <trkpt lat="43.76175" lon="6.16549">
        <ele>470</ele>
        <time>2011-07-10T10:39:47.004Z</time>
      </trkpt>
      <trkpt lat="43.76178" lon="6.1656">
        <ele>470</ele>
        <time>2011-07-10T10:39:51.998Z</time>
      </trkpt>
      <trkpt lat="43.76183" lon="6.16571">
        <ele>470</ele>
        <time>2011-07-10T10:39:57Z</time>
      </trkpt>
      <trkpt lat="43.76186" lon="6.16582">
        <ele>470</ele>
        <time>2011-07-10T10:40:02Z</time>
      </trkpt>
      <trkpt lat="43.76191" lon="6.16601">
        <ele>470</ele>
        <time>2011-07-10T10:40:12Z</time>
      </trkpt>
      <trkpt lat="43.76198" lon="6.16618">
        <ele>470</ele>
        <time>2011-07-10T10:40:22Z</time>
      </trkpt>
      <trkpt lat="43.76202" lon="6.16628">
        <ele>470</ele>
        <time>2011-07-10T10:40:27Z</time>
      </trkpt>
      <trkpt lat="43.76205" lon="6.16639">
        <ele>470</ele>
        <time>2011-07-10T10:40:32.005Z</time>
      </trkpt>
      <trkpt lat="43.76208" lon="6.1665">
        <ele>470</ele>
        <time>2011-07-10T10:40:37.016Z</time>
      </trkpt>
      <trkpt lat="43.76211" lon="6.1666">
        <ele>470</ele>
        <time>2011-07-10T10:40:42.001Z</time>
      </trkpt>
      <trkpt lat="43.76214" lon="6.1667">
        <ele>470</ele>
        <time>2011-07-10T10:40:46.998Z</time>
      </trkpt>
      <trkpt lat="43.76218" lon="6.16681">
        <ele>470</ele>
        <time>2011-07-10T10:40:52Z</time>
      </trkpt>
      <trkpt lat="43.76222" lon="6.16691">
        <ele>470</ele>
        <time>2011-07-10T10:40:57.001Z</time>
      </trkpt>
      <trkpt lat="43.76227" lon="6.16702">
        <ele>470</ele>
        <time>2011-07-10T10:41:02Z</time>
      </trkpt>
      <trkpt lat="43.76231" lon="6.16713">
        <ele>470</ele>
        <time>2011-07-10T10:41:06.998Z</time>
      </trkpt>
      <trkpt lat="43.76236" lon="6.16723">
        <ele>470</ele>
        <time>2011-07-10T10:41:12Z</time>
      </trkpt>
      <trkpt lat="43.76241" lon="6.16731">
        <ele>470</ele>
        <time>2011-07-10T10:41:16.998Z</time>
      </trkpt>
      <trkpt lat="43.76246" lon="6.16738">
        <ele>470</ele>
        <time>2011-07-10T10:41:22.001Z</time>
      </trkpt>
      <trkpt lat="43.76252" lon="6.1675">
        <ele>470</ele>
        <time>2011-07-10T10:41:32.001Z</time>
      </trkpt>
      <trkpt lat="43.76253" lon="6.16768">
        <ele>470</ele>
        <time>2011-07-10T10:41:47Z</time>
      </trkpt>
      <trkpt lat="43.76252" lon="6.16782">
        <ele>470</ele>
        <time>2011-07-10T10:41:57Z</time>
      </trkpt>
      <trkpt lat="43.76256" lon="6.16796">
        <ele>470</ele>
        <time>2011-07-10T10:42:07Z</time>
      </trkpt>
      <trkpt lat="43.7626" lon="6.16804">
        <ele>470</ele>
        <time>2011-07-10T10:42:11.998Z</time>
      </trkpt>
      <trkpt lat="43.76266" lon="6.16812">
        <ele>470</ele>
        <time>2011-07-10T10:42:17Z</time>
      </trkpt>
      <trkpt lat="43.7627" lon="6.16819">
        <ele>470</ele>
        <time>2011-07-10T10:42:22.004Z</time>
      </trkpt>
      <trkpt lat="43.76275" lon="6.16826">
        <ele>470</ele>
        <time>2011-07-10T10:42:26.998Z</time>
      </trkpt>
      <trkpt lat="43.7628" lon="6.16834">
        <ele>470</ele>
        <time>2011-07-10T10:42:32.001Z</time>
      </trkpt>
      <trkpt lat="43.76285" lon="6.16841">
        <ele>470</ele>
        <time>2011-07-10T10:42:37.001Z</time>
      </trkpt>
      <trkpt lat="43.76291" lon="6.16847">
        <ele>470</ele>
        <time>2011-07-10T10:42:41.998Z</time>
      </trkpt>
      <trkpt lat="43.76296" lon="6.16853">
        <ele>470</ele>
        <time>2011-07-10T10:42:47Z</time>
      </trkpt>
      <trkpt lat="43.76305" lon="6.16868">
        <ele>470</ele>
        <time>2011-07-10T10:42:57Z</time>
      </trkpt>
      <trkpt lat="43.76311" lon="6.16877">
        <ele>470</ele>
        <time>2011-07-10T10:43:02.001Z</time>
      </trkpt>
      <trkpt lat="43.76316" lon="6.16886">
        <ele>470</ele>
        <time>2011-07-10T10:43:06.998Z</time>
      </trkpt>
      <trkpt lat="43.7632" lon="6.16895">
        <ele>470</ele>
        <time>2011-07-10T10:43:12.001Z</time>
      </trkpt>
      <trkpt lat="43.76325" lon="6.16906">
        <ele>470</ele>
        <time>2011-07-10T10:43:16.998Z</time>
      </trkpt>
      <trkpt lat="43.76328" lon="6.16917">
        <ele>470</ele>
        <time>2011-07-10T10:43:21.998Z</time>
      </trkpt>
      <trkpt lat="43.76334" lon="6.16934">
        <ele>470</ele>
        <time>2011-07-10T10:43:32Z</time>
      </trkpt>
      <trkpt lat="43.76338" lon="6.16943">
        <ele>470</ele>
        <time>2011-07-10T10:43:37.001Z</time>
      </trkpt>
      <trkpt lat="43.76344" lon="6.16949">
        <ele>470</ele>
        <time>2011-07-10T10:43:42.001Z</time>
      </trkpt>
      <trkpt lat="43.7635" lon="6.16956">
        <ele>470</ele>
        <time>2011-07-10T10:43:47Z</time>
      </trkpt>
      <trkpt lat="43.76356" lon="6.16962">
        <ele>470</ele>
        <time>2011-07-10T10:43:52.001Z</time>
      </trkpt>
      <trkpt lat="43.76362" lon="6.16969">
        <ele>470</ele>
        <time>2011-07-10T10:43:56.998Z</time>
      </trkpt>
      <trkpt lat="43.76367" lon="6.16978">
        <ele>470</ele>
        <time>2011-07-10T10:44:02.001Z</time>
      </trkpt>
      <trkpt lat="43.76372" lon="6.16997">
        <ele>470</ele>
        <time>2011-07-10T10:44:12Z</time>
      </trkpt>
      <trkpt lat="43.76375" lon="6.17006">
        <ele>470</ele>
        <time>2011-07-10T10:44:17Z</time>
      </trkpt>
      <trkpt lat="43.76379" lon="6.17015">
        <ele>470</ele>
        <time>2011-07-10T10:44:22Z</time>
      </trkpt>
      <trkpt lat="43.76384" lon="6.17023">
        <ele>470</ele>
        <time>2011-07-10T10:44:27.005Z</time>
      </trkpt>
      <trkpt lat="43.76388" lon="6.17032">
        <ele>470</ele>
        <time>2011-07-10T10:44:31.998Z</time>
      </trkpt>
      <trkpt lat="43.76393" lon="6.17041">
        <ele>470</ele>
        <time>2011-07-10T10:44:37.001Z</time>
      </trkpt>
      <trkpt lat="43.76398" lon="6.1705">
        <ele>470</ele>
        <time>2011-07-10T10:44:42Z</time>
      </trkpt>
      <trkpt lat="43.76403" lon="6.17057">
        <ele>470</ele>
        <time>2011-07-10T10:44:47Z</time>
      </trkpt>
      <trkpt lat="43.7641" lon="6.17064">
        <ele>470</ele>
        <time>2011-07-10T10:44:52Z</time>
      </trkpt>
      <trkpt lat="43.76415" lon="6.17071">
        <ele>470</ele>
        <time>2011-07-10T10:44:56.998Z</time>
      </trkpt>
      <trkpt lat="43.76421" lon="6.17078">
        <ele>470</ele>
        <time>2011-07-10T10:45:02.001Z</time>
      </trkpt>
      <trkpt lat="43.76427" lon="6.17086">
        <ele>470</ele>
        <time>2011-07-10T10:45:06.998Z</time>
      </trkpt>
      <trkpt lat="43.76435" lon="6.17094">
        <ele>470</ele>
        <time>2011-07-10T10:45:12Z</time>
      </trkpt>
      <trkpt lat="43.76441" lon="6.17102">
        <ele>470</ele>
        <time>2011-07-10T10:45:17Z</time>
      </trkpt>
      <trkpt lat="43.76448" lon="6.17111">
        <ele>470</ele>
        <time>2011-07-10T10:45:22.001Z</time>
      </trkpt>
      <trkpt lat="43.76456" lon="6.17119">
        <ele>470</ele>
        <time>2011-07-10T10:45:26.998Z</time>
      </trkpt>
      <trkpt lat="43.76463" lon="6.17128">
        <ele>470</ele>
        <time>2011-07-10T10:45:31.998Z</time>
      </trkpt>
      <trkpt lat="43.76468" lon="6.17136">
        <ele>470</ele>
        <time>2011-07-10T10:45:37.001Z</time>
      </trkpt>
      <trkpt lat="43.76473" lon="6.17145">
        <ele>470</ele>
        <time>2011-07-10T10:45:42Z</time>
      </trkpt>
      <trkpt lat="43.76478" lon="6.17152">
        <ele>470</ele>
        <time>2011-07-10T10:45:47.002Z</time>
      </trkpt>
      <trkpt lat="43.76482" lon="6.1716">
        <ele>470</ele>
        <time>2011-07-10T10:45:52Z</time>
      </trkpt>
      <trkpt lat="43.76491" lon="6.17168">
        <ele>470</ele>
        <time>2011-07-10T10:46:02.001Z</time>
      </trkpt>
      <trkpt lat="43.765" lon="6.17169">
        <ele>470</ele>
        <time>2011-07-10T10:46:12.001Z</time>
      </trkpt>
      <trkpt lat="43.76516" lon="6.1717">
        <ele>470</ele>
        <time>2011-07-10T10:46:42.001Z</time>
      </trkpt>
      <trkpt lat="43.76525" lon="6.17176">
        <ele>470</ele>
        <time>2011-07-10T10:47:02.002Z</time>
      </trkpt>
      <trkpt lat="43.76532" lon="6.1718">
        <ele>470</ele>
        <time>2011-07-10T10:47:17.001Z</time>
      </trkpt>
      <trkpt lat="43.76546" lon="6.17181">
        <ele>470</ele>
        <time>2011-07-10T10:47:32.001Z</time>
      </trkpt>
      <trkpt lat="43.76558" lon="6.17179">
        <ele>470</ele>
        <time>2011-07-10T10:47:42Z</time>
      </trkpt>
      <trkpt lat="43.76571" lon="6.17182">
        <ele>470</ele>
        <time>2011-07-10T10:47:52Z</time>
      </trkpt>
      <trkpt lat="43.76576" lon="6.17197">
        <ele>470</ele>
        <time>2011-07-10T10:48:02.001Z</time>
      </trkpt>
      <trkpt lat="43.76575" lon="6.17214">
        <ele>470</ele>
        <time>2011-07-10T10:48:12.001Z</time>
      </trkpt>
      <trkpt lat="43.76579" lon="6.17232">
        <ele>470</ele>
        <time>2011-07-10T10:48:22Z</time>
      </trkpt>
      <trkpt lat="43.76581" lon="6.17241">
        <ele>470</ele>
        <time>2011-07-10T10:48:27.001Z</time>
      </trkpt>
      <trkpt lat="43.76585" lon="6.17251">
        <ele>470</ele>
        <time>2011-07-10T10:48:31.998Z</time>
      </trkpt>
      <trkpt lat="43.76589" lon="6.17261">
        <ele>470</ele>
        <time>2011-07-10T10:48:36.995Z</time>
      </trkpt>
      <trkpt lat="43.76594" lon="6.17271">
        <ele>470</ele>
        <time>2011-07-10T10:48:42Z</time>
      </trkpt>
      <trkpt lat="43.76601" lon="6.17278">
        <ele>470</ele>
        <time>2011-07-10T10:48:46.998Z</time>
      </trkpt>
      <trkpt lat="43.76607" lon="6.17285">
        <ele>470</ele>
        <time>2011-07-10T10:48:52.001Z</time>
      </trkpt>
      <trkpt lat="43.76612" lon="6.17292">
        <ele>470</ele>
        <time>2011-07-10T10:48:57.001Z</time>
      </trkpt>
      <trkpt lat="43.76618" lon="6.17299">
        <ele>470</ele>
        <time>2011-07-10T10:49:02.004Z</time>
      </trkpt>
      <trkpt lat="43.76625" lon="6.17306">
        <ele>470</ele>
        <time>2011-07-10T10:49:06.998Z</time>
      </trkpt>
      <trkpt lat="43.76631" lon="6.17312">
        <ele>470</ele>
        <time>2011-07-10T10:49:12Z</time>
      </trkpt>
      <trkpt lat="43.76638" lon="6.17318">
        <ele>470</ele>
        <time>2011-07-10T10:49:17.001Z</time>
      </trkpt>
      <trkpt lat="43.76643" lon="6.17325">
        <ele>470</ele>
        <time>2011-07-10T10:49:22.010Z</time>
      </trkpt>
      <trkpt lat="43.76651" lon="6.17341">
        <ele>470</ele>
        <time>2011-07-10T10:49:32.002Z</time>
      </trkpt>
      <trkpt lat="43.76655" lon="6.17352">
        <ele>470</ele>
        <time>2011-07-10T10:49:42Z</time>
      </trkpt>
      <trkpt lat="43.76658" lon="6.17365">
        <ele>470</ele>
        <time>2011-07-10T10:49:51.998Z</time>
      </trkpt>
      <trkpt lat="43.76662" lon="6.1738">
        <ele>470</ele>
        <time>2011-07-10T10:50:02Z</time>
      </trkpt>
      <trkpt lat="43.76665" lon="6.17397">
        <ele>470</ele>
        <time>2011-07-10T10:50:12.001Z</time>
      </trkpt>
      <trkpt lat="43.76665" lon="6.17416">
        <ele>470</ele>
        <time>2011-07-10T10:50:22Z</time>
      </trkpt>
      <trkpt lat="43.76661" lon="6.17433">
        <ele>470</ele>
        <time>2011-07-10T10:50:32Z</time>
      </trkpt>
      <trkpt lat="43.76657" lon="6.17447">
        <ele>470</ele>
        <time>2011-07-10T10:50:42.001Z</time>
      </trkpt>
      <trkpt lat="43.76653" lon="6.17454">
        <ele>470</ele>
        <time>2011-07-10T10:50:47Z</time>
      </trkpt>
      <trkpt lat="43.76647" lon="6.17461">
        <ele>470</ele>
        <time>2011-07-10T10:50:52.001Z</time>
      </trkpt>
      <trkpt lat="43.76642" lon="6.1747">
        <ele>470</ele>
        <time>2011-07-10T10:50:57.001Z</time>
      </trkpt>
      <trkpt lat="43.76638" lon="6.17478">
        <ele>470</ele>
        <time>2011-07-10T10:51:01.995Z</time>
      </trkpt>
      <trkpt lat="43.76632" lon="6.17486">
        <ele>470</ele>
        <time>2011-07-10T10:51:07.001Z</time>
      </trkpt>
      <trkpt lat="43.76622" lon="6.17498">
        <ele>470</ele>
        <time>2011-07-10T10:51:17.001Z</time>
      </trkpt>
      <trkpt lat="43.76616" lon="6.17505">
        <ele>470</ele>
        <time>2011-07-10T10:51:22Z</time>
      </trkpt>
      <trkpt lat="43.7661" lon="6.17511">
        <ele>470</ele>
        <time>2011-07-10T10:51:27Z</time>
      </trkpt>
      <trkpt lat="43.76605" lon="6.17517">
        <ele>470</ele>
        <time>2011-07-10T10:51:32Z</time>
      </trkpt>
      <trkpt lat="43.76595" lon="6.1753">
        <ele>470</ele>
        <time>2011-07-10T10:51:42.001Z</time>
      </trkpt>
      <trkpt lat="43.76592" lon="6.17539">
        <ele>470</ele>
        <time>2011-07-10T10:51:46.998Z</time>
      </trkpt>
      <trkpt lat="43.76588" lon="6.17548">
        <ele>470</ele>
        <time>2011-07-10T10:51:52Z</time>
      </trkpt>
      <trkpt lat="43.76583" lon="6.17557">
        <ele>470</ele>
        <time>2011-07-10T10:51:57.002Z</time>
      </trkpt>
      <trkpt lat="43.76578" lon="6.17565">
        <ele>470</ele>
        <time>2011-07-10T10:52:01.998Z</time>
      </trkpt>
      <trkpt lat="43.7657" lon="6.17575">
        <ele>470</ele>
        <time>2011-07-10T10:52:12Z</time>
      </trkpt>
      <trkpt lat="43.7656" lon="6.17583">
        <ele>470</ele>
        <time>2011-07-10T10:52:22Z</time>
      </trkpt>
      <trkpt lat="43.76552" lon="6.17594">
        <ele>470</ele>
        <time>2011-07-10T10:52:32Z</time>
      </trkpt>
      <trkpt lat="43.76548" lon="6.17615">
        <ele>470</ele>
        <time>2011-07-10T10:52:41.998Z</time>
      </trkpt>
      <trkpt lat="43.76544" lon="6.17625">
        <ele>470</ele>
        <time>2011-07-10T10:52:46.998Z</time>
      </trkpt>
      <trkpt lat="43.76542" lon="6.17635">
        <ele>470</ele>
        <time>2011-07-10T10:52:51.998Z</time>
      </trkpt>
      <trkpt lat="43.76539" lon="6.17646">
        <ele>470</ele>
        <time>2011-07-10T10:52:57Z</time>
      </trkpt>
      <trkpt lat="43.76536" lon="6.17658">
        <ele>470</ele>
        <time>2011-07-10T10:53:02.001Z</time>
      </trkpt>
      <trkpt lat="43.76534" lon="6.17668">
        <ele>470</ele>
        <time>2011-07-10T10:53:07.001Z</time>
      </trkpt>
      <trkpt lat="43.76531" lon="6.17678">
        <ele>470</ele>
        <time>2011-07-10T10:53:12Z</time>
      </trkpt>
      <trkpt lat="43.76528" lon="6.17688">
        <ele>470</ele>
        <time>2011-07-10T10:53:16.998Z</time>
      </trkpt>
      <trkpt lat="43.76524" lon="6.17697">
        <ele>470</ele>
        <time>2011-07-10T10:53:21.998Z</time>
      </trkpt>
      <trkpt lat="43.76519" lon="6.17703">
        <ele>470</ele>
        <time>2011-07-10T10:53:26.998Z</time>
      </trkpt>
      <trkpt lat="43.76514" lon="6.1771">
        <ele>470</ele>
        <time>2011-07-10T10:53:32.001Z</time>
      </trkpt>
      <trkpt lat="43.76505" lon="6.17722">
        <ele>470</ele>
        <time>2011-07-10T10:53:42.001Z</time>
      </trkpt>
      <trkpt lat="43.76501" lon="6.17729">
        <ele>470</ele>
        <time>2011-07-10T10:53:46.998Z</time>
      </trkpt>
      <trkpt lat="43.76495" lon="6.17748">
        <ele>470</ele>
        <time>2011-07-10T10:53:57Z</time>
      </trkpt>
      <trkpt lat="43.76494" lon="6.17759">
        <ele>470</ele>
        <time>2011-07-10T10:54:01.998Z</time>
      </trkpt>
      <trkpt lat="43.76492" lon="6.1777">
        <ele>470</ele>
        <time>2011-07-10T10:54:06.998Z</time>
      </trkpt>
      <trkpt lat="43.76491" lon="6.17781">
        <ele>470</ele>
        <time>2011-07-10T10:54:12Z</time>
      </trkpt>
      <trkpt lat="43.76489" lon="6.17792">
        <ele>470</ele>
        <time>2011-07-10T10:54:17Z</time>
      </trkpt>
      <trkpt lat="43.76487" lon="6.17802">
        <ele>470</ele>
        <time>2011-07-10T10:54:22Z</time>
      </trkpt>
      <trkpt lat="43.76483" lon="6.17813">
        <ele>470</ele>
        <time>2011-07-10T10:54:27Z</time>
      </trkpt>
      <trkpt lat="43.7648" lon="6.17823">
        <ele>470</ele>
        <time>2011-07-10T10:54:32Z</time>
      </trkpt>
      <trkpt lat="43.76476" lon="6.17833">
        <ele>470</ele>
        <time>2011-07-10T10:54:37Z</time>
      </trkpt>
      <trkpt lat="43.76472" lon="6.17843">
        <ele>470</ele>
        <time>2011-07-10T10:54:42Z</time>
      </trkpt>
      <trkpt lat="43.76468" lon="6.17852">
        <ele>470</ele>
        <time>2011-07-10T10:54:47Z</time>
      </trkpt>
      <trkpt lat="43.76463" lon="6.1786">
        <ele>470</ele>
        <time>2011-07-10T10:54:52Z</time>
      </trkpt>
      <trkpt lat="43.7646" lon="6.17868">
        <ele>470</ele>
        <time>2011-07-10T10:54:57Z</time>
      </trkpt>
      <trkpt lat="43.76456" lon="6.17878">
        <ele>470</ele>
        <time>2011-07-10T10:55:01.997Z</time>
      </trkpt>
      <trkpt lat="43.76451" lon="6.17887">
        <ele>470</ele>
        <time>2011-07-10T10:55:06.998Z</time>
      </trkpt>
      <trkpt lat="43.76447" lon="6.17895">
        <ele>470</ele>
        <time>2011-07-10T10:55:11.998Z</time>
      </trkpt>
      <trkpt lat="43.76442" lon="6.17904">
        <ele>470</ele>
        <time>2011-07-10T10:55:16.998Z</time>
      </trkpt>
      <trkpt lat="43.76437" lon="6.17914">
        <ele>470</ele>
        <time>2011-07-10T10:55:22Z</time>
      </trkpt>
      <trkpt lat="43.76433" lon="6.17925">
        <ele>470</ele>
        <time>2011-07-10T10:55:27.002Z</time>
      </trkpt>
      <trkpt lat="43.76428" lon="6.17934">
        <ele>470</ele>
        <time>2011-07-10T10:55:32Z</time>
      </trkpt>
      <trkpt lat="43.76422" lon="6.17942">
        <ele>470</ele>
        <time>2011-07-10T10:55:37Z</time>
      </trkpt>
      <trkpt lat="43.76417" lon="6.1795">
        <ele>470</ele>
        <time>2011-07-10T10:55:41.998Z</time>
      </trkpt>
      <trkpt lat="43.76413" lon="6.17958">
        <ele>470</ele>
        <time>2011-07-10T10:55:47Z</time>
      </trkpt>
      <trkpt lat="43.76405" lon="6.17974">
        <ele>470</ele>
        <time>2011-07-10T10:55:57.001Z</time>
      </trkpt>
      <trkpt lat="43.76402" lon="6.17982">
        <ele>470</ele>
        <time>2011-07-10T10:56:02Z</time>
      </trkpt>
      <trkpt lat="43.76396" lon="6.17999">
        <ele>470</ele>
        <time>2011-07-10T10:56:12Z</time>
      </trkpt>
      <trkpt lat="43.76392" lon="6.18009">
        <ele>470</ele>
        <time>2011-07-10T10:56:16.998Z</time>
      </trkpt>
      <trkpt lat="43.76388" lon="6.1802">
        <ele>470</ele>
        <time>2011-07-10T10:56:21.998Z</time>
      </trkpt>
      <trkpt lat="43.76384" lon="6.1803">
        <ele>470</ele>
        <time>2011-07-10T10:56:26.998Z</time>
      </trkpt>
      <trkpt lat="43.7638" lon="6.18041">
        <ele>470</ele>
        <time>2011-07-10T10:56:32.001Z</time>
      </trkpt>
      <trkpt lat="43.76377" lon="6.18051">
        <ele>470</ele>
        <time>2011-07-10T10:56:37.001Z</time>
      </trkpt>
      <trkpt lat="43.76373" lon="6.1806">
        <ele>470</ele>
        <time>2011-07-10T10:56:42.001Z</time>
      </trkpt>
      <trkpt lat="43.76366" lon="6.18076">
        <ele>470</ele>
        <time>2011-07-10T10:56:51.998Z</time>
      </trkpt>
      <trkpt lat="43.76363" lon="6.18086">
        <ele>470</ele>
        <time>2011-07-10T10:56:57Z</time>
      </trkpt>
      <trkpt lat="43.76359" lon="6.18096">
        <ele>470</ele>
        <time>2011-07-10T10:57:02Z</time>
      </trkpt>
      <trkpt lat="43.76355" lon="6.18105">
        <ele>470</ele>
        <time>2011-07-10T10:57:07.001Z</time>
      </trkpt>
      <trkpt lat="43.76351" lon="6.18114">
        <ele>470</ele>
        <time>2011-07-10T10:57:11.998Z</time>
      </trkpt>
      <trkpt lat="43.76347" lon="6.18124">
        <ele>470</ele>
        <time>2011-07-10T10:57:17.001Z</time>
      </trkpt>
      <trkpt lat="43.76342" lon="6.18132">
        <ele>470</ele>
        <time>2011-07-10T10:57:22.001Z</time>
      </trkpt>
      <trkpt lat="43.76337" lon="6.18139">
        <ele>470</ele>
        <time>2011-07-10T10:57:26.998Z</time>
      </trkpt>
      <trkpt lat="43.76329" lon="6.18155">
        <ele>470</ele>
        <time>2011-07-10T10:57:37.001Z</time>
      </trkpt>
      <trkpt lat="43.76322" lon="6.18169">
        <ele>470</ele>
        <time>2011-07-10T10:57:47.001Z</time>
      </trkpt>
      <trkpt lat="43.76319" lon="6.18178">
        <ele>470</ele>
        <time>2011-07-10T10:57:52Z</time>
      </trkpt>
      <trkpt lat="43.76316" lon="6.18187">
        <ele>470</ele>
        <time>2011-07-10T10:57:56.998Z</time>
      </trkpt>
      <trkpt lat="43.76307" lon="6.18201">
        <ele>470</ele>
        <time>2011-07-10T10:58:07.001Z</time>
      </trkpt>
      <trkpt lat="43.76303" lon="6.18209">
        <ele>470</ele>
        <time>2011-07-10T10:58:12.001Z</time>
      </trkpt>
      <trkpt lat="43.76298" lon="6.18218">
        <ele>470</ele>
        <time>2011-07-10T10:58:17Z</time>
      </trkpt>
      <trkpt lat="43.76293" lon="6.18227">
        <ele>470</ele>
        <time>2011-07-10T10:58:22Z</time>
      </trkpt>
      <trkpt lat="43.76288" lon="6.18235">
        <ele>470</ele>
        <time>2011-07-10T10:58:27Z</time>
      </trkpt>
      <trkpt lat="43.76283" lon="6.18244">
        <ele>470</ele>
        <time>2011-07-10T10:58:32.001Z</time>
      </trkpt>
      <trkpt lat="43.76278" lon="6.18252">
        <ele>470</ele>
        <time>2011-07-10T10:58:37.001Z</time>
      </trkpt>
      <trkpt lat="43.76273" lon="6.18259">
        <ele>470</ele>
        <time>2011-07-10T10:58:42.002Z</time>
      </trkpt>
      <trkpt lat="43.76268" lon="6.18273">
        <ele>470</ele>
        <time>2011-07-10T10:58:51.998Z</time>
      </trkpt>
      <trkpt lat="43.76264" lon="6.18282">
        <ele>470</ele>
        <time>2011-07-10T10:58:56.995Z</time>
      </trkpt>
      <trkpt lat="43.76261" lon="6.1829">
        <ele>470</ele>
        <time>2011-07-10T10:59:02.001Z</time>
      </trkpt>
      <trkpt lat="43.76258" lon="6.183">
        <ele>470</ele>
        <time>2011-07-10T10:59:07Z</time>
      </trkpt>
      <trkpt lat="43.76255" lon="6.18309">
        <ele>470</ele>
        <time>2011-07-10T10:59:12Z</time>
      </trkpt>
      <trkpt lat="43.76251" lon="6.18318">
        <ele>470</ele>
        <time>2011-07-10T10:59:16.998Z</time>
      </trkpt>
      <trkpt lat="43.76247" lon="6.18336">
        <ele>470</ele>
        <time>2011-07-10T10:59:27Z</time>
      </trkpt>
      <trkpt lat="43.76241" lon="6.18345">
        <ele>471</ele>
        <time>2011-07-10T10:59:36.998Z</time>
      </trkpt>
      <trkpt lat="43.76227" lon="6.18339">
        <ele>471</ele>
        <time>2011-07-10T11:00:11.998Z</time>
      </trkpt>
      <trkpt lat="43.76219" lon="6.18342">
        <ele>472</ele>
        <time>2011-07-10T11:00:22.001Z</time>
      </trkpt>
      <trkpt lat="43.7621" lon="6.18351">
        <ele>472</ele>
        <time>2011-07-10T11:00:31.998Z</time>
      </trkpt>
      <trkpt lat="43.76198" lon="6.18357">
        <ele>472</ele>
        <time>2011-07-10T11:00:42.001Z</time>
      </trkpt>
      <trkpt lat="43.76189" lon="6.18364">
        <ele>472</ele>
        <time>2011-07-10T11:00:52.001Z</time>
      </trkpt>
      <trkpt lat="43.76177" lon="6.18366">
        <ele>473</ele>
        <time>2011-07-10T11:01:12Z</time>
      </trkpt>
      <trkpt lat="43.76165" lon="6.18361">
        <ele>480</ele>
        <time>2011-07-10T11:01:27.001Z</time>
      </trkpt>
      <trkpt lat="43.76157" lon="6.18355">
        <ele>480</ele>
        <time>2011-07-10T11:01:37.001Z</time>
      </trkpt>
      <trkpt lat="43.7615" lon="6.18349">
        <ele>480</ele>
        <time>2011-07-10T11:01:47Z</time>
      </trkpt>
      <trkpt lat="43.76133" lon="6.18336">
        <ele>482</ele>
        <time>2011-07-10T11:02:17Z</time>
      </trkpt>
      <trkpt lat="43.76125" lon="6.1833">
        <ele>477</ele>
        <time>2011-07-10T11:02:27Z</time>
      </trkpt>
      <trkpt lat="43.76112" lon="6.18327">
        <ele>479</ele>
        <time>2011-07-10T11:02:42Z</time>
      </trkpt>
      <trkpt lat="43.76103" lon="6.18321">
        <ele>480</ele>
        <time>2011-07-10T11:02:51.998Z</time>
      </trkpt>
      <trkpt lat="43.76079" lon="6.18312">
        <ele>489</ele>
        <time>2011-07-10T11:03:22Z</time>
      </trkpt>
      <trkpt lat="43.76073" lon="6.1832">
        <ele>490</ele>
        <time>2011-07-10T11:03:36.998Z</time>
      </trkpt>
      <trkpt lat="43.76082" lon="6.18318">
        <ele>490</ele>
        <time>2011-07-10T11:08:36.998Z</time>
      </trkpt>
      <trkpt lat="43.76073" lon="6.18292">
        <ele>487</ele>
        <time>2011-07-10T11:10:07.001Z</time>
      </trkpt>
      <trkpt lat="43.76064" lon="6.18283">
        <ele>487</ele>
        <time>2011-07-10T11:10:16.998Z</time>
      </trkpt>
      <trkpt lat="43.76055" lon="6.18271">
        <ele>486</ele>
        <time>2011-07-10T11:10:27Z</time>
      </trkpt>
      <trkpt lat="43.76048" lon="6.18261">
        <ele>486</ele>
        <time>2011-07-10T11:10:37Z</time>
      </trkpt>
      <trkpt lat="43.7604" lon="6.18249">
        <ele>476</ele>
        <time>2011-07-10T11:10:46.998Z</time>
      </trkpt>
      <trkpt lat="43.76033" lon="6.18238">
        <ele>477</ele>
        <time>2011-07-10T11:10:56.997Z</time>
      </trkpt>
      <trkpt lat="43.76026" lon="6.18226">
        <ele>477</ele>
        <time>2011-07-10T11:11:07Z</time>
      </trkpt>
      <trkpt lat="43.7602" lon="6.18218">
        <ele>476</ele>
        <time>2011-07-10T11:11:17Z</time>
      </trkpt>
      <trkpt lat="43.76015" lon="6.18212">
        <ele>476</ele>
        <time>2011-07-10T11:11:26.998Z</time>
      </trkpt>
      <trkpt lat="43.76007" lon="6.18203">
        <ele>475</ele>
        <time>2011-07-10T11:11:37.002Z</time>
      </trkpt>
      <trkpt lat="43.75999" lon="6.18192">
        <ele>483</ele>
        <time>2011-07-10T11:11:46.998Z</time>
      </trkpt>
      <trkpt lat="43.75993" lon="6.18181">
        <ele>479</ele>
        <time>2011-07-10T11:11:56.998Z</time>
      </trkpt>
      <trkpt lat="43.75987" lon="6.18169">
        <ele>478</ele>
        <time>2011-07-10T11:12:07Z</time>
      </trkpt>
      <trkpt lat="43.7598" lon="6.18159">
        <ele>474</ele>
        <time>2011-07-10T11:12:17.004Z</time>
      </trkpt>
      <trkpt lat="43.75974" lon="6.18148">
        <ele>474</ele>
        <time>2011-07-10T11:12:26.998Z</time>
      </trkpt>
      <trkpt lat="43.75966" lon="6.18136">
        <ele>475</ele>
        <time>2011-07-10T11:12:37Z</time>
      </trkpt>
      <trkpt lat="43.75955" lon="6.18125">
        <ele>475</ele>
        <time>2011-07-10T11:12:47.001Z</time>
      </trkpt>
      <trkpt lat="43.75946" lon="6.18115">
        <ele>475</ele>
        <time>2011-07-10T11:12:57Z</time>
      </trkpt>
      <trkpt lat="43.7594" lon="6.18105">
        <ele>474</ele>
        <time>2011-07-10T11:13:07Z</time>
      </trkpt>
      <trkpt lat="43.75932" lon="6.18096">
        <ele>473</ele>
        <time>2011-07-10T11:13:16.998Z</time>
      </trkpt>
      <trkpt lat="43.75923" lon="6.18082">
        <ele>470</ele>
        <time>2011-07-10T11:13:32Z</time>
      </trkpt>
      <trkpt lat="43.75917" lon="6.18074">
        <ele>470</ele>
        <time>2011-07-10T11:13:42.001Z</time>
      </trkpt>
      <trkpt lat="43.75912" lon="6.18067">
        <ele>471</ele>
        <time>2011-07-10T11:13:52.001Z</time>
      </trkpt>
      <trkpt lat="43.75903" lon="6.18061">
        <ele>472</ele>
        <time>2011-07-10T11:14:02.002Z</time>
      </trkpt>
      <trkpt lat="43.75893" lon="6.18053">
        <ele>472</ele>
        <time>2011-07-10T11:14:12Z</time>
      </trkpt>
      <trkpt lat="43.7588" lon="6.18049">
        <ele>473</ele>
        <time>2011-07-10T11:14:22Z</time>
      </trkpt>
      <trkpt lat="43.75872" lon="6.18037">
        <ele>473</ele>
        <time>2011-07-10T11:14:32Z</time>
      </trkpt>
      <trkpt lat="43.75867" lon="6.18024">
        <ele>472</ele>
        <time>2011-07-10T11:14:42Z</time>
      </trkpt>
      <trkpt lat="43.75858" lon="6.18014">
        <ele>472</ele>
        <time>2011-07-10T11:14:52Z</time>
      </trkpt>
      <trkpt lat="43.75849" lon="6.18002">
        <ele>471</ele>
        <time>2011-07-10T11:15:02.001Z</time>
      </trkpt>
      <trkpt lat="43.75843" lon="6.17997">
        <ele>470</ele>
        <time>2011-07-10T11:15:07.002Z</time>
      </trkpt>
      <trkpt lat="43.75838" lon="6.17992">
        <ele>470</ele>
        <time>2011-07-10T11:15:12.002Z</time>
      </trkpt>
      <trkpt lat="43.75832" lon="6.17985">
        <ele>471</ele>
        <time>2011-07-10T11:15:16.998Z</time>
      </trkpt>
      <trkpt lat="43.75822" lon="6.17977">
        <ele>472</ele>
        <time>2011-07-10T11:15:26.995Z</time>
      </trkpt>
      <trkpt lat="43.75812" lon="6.17969">
        <ele>472</ele>
        <time>2011-07-10T11:15:37.001Z</time>
      </trkpt>
      <trkpt lat="43.75807" lon="6.17963">
        <ele>472</ele>
        <time>2011-07-10T11:15:42Z</time>
      </trkpt>
      <trkpt lat="43.75796" lon="6.17957">
        <ele>472</ele>
        <time>2011-07-10T11:15:51.995Z</time>
      </trkpt>
      <trkpt lat="43.75791" lon="6.17945">
        <ele>472</ele>
        <time>2011-07-10T11:16:01.998Z</time>
      </trkpt>
      <trkpt lat="43.7579" lon="6.17928">
        <ele>472</ele>
        <time>2011-07-10T11:16:12.001Z</time>
      </trkpt>
      <trkpt lat="43.75789" lon="6.17912">
        <ele>470</ele>
        <time>2011-07-10T11:16:21.998Z</time>
      </trkpt>
      <trkpt lat="43.75787" lon="6.17895">
        <ele>470</ele>
        <time>2011-07-10T11:16:32.001Z</time>
      </trkpt>
      <trkpt lat="43.75786" lon="6.17878">
        <ele>470</ele>
        <time>2011-07-10T11:16:41.998Z</time>
      </trkpt>
      <trkpt lat="43.75783" lon="6.1786">
        <ele>470</ele>
        <time>2011-07-10T11:16:52.001Z</time>
      </trkpt>
      <trkpt lat="43.7578" lon="6.17851">
        <ele>470</ele>
        <time>2011-07-10T11:16:57Z</time>
      </trkpt>
      <trkpt lat="43.75778" lon="6.17835">
        <ele>470</ele>
        <time>2011-07-10T11:17:07Z</time>
      </trkpt>
      <trkpt lat="43.7578" lon="6.17818">
        <ele>470</ele>
        <time>2011-07-10T11:17:17.004Z</time>
      </trkpt>
      <trkpt lat="43.75782" lon="6.17801">
        <ele>470</ele>
        <time>2011-07-10T11:17:26.998Z</time>
      </trkpt>
      <trkpt lat="43.75781" lon="6.17784">
        <ele>470</ele>
        <time>2011-07-10T11:17:37.001Z</time>
      </trkpt>
      <trkpt lat="43.7578" lon="6.17768">
        <ele>470</ele>
        <time>2011-07-10T11:17:47.002Z</time>
      </trkpt>
      <trkpt lat="43.75781" lon="6.1775">
        <ele>470</ele>
        <time>2011-07-10T11:17:57.005Z</time>
      </trkpt>
      <trkpt lat="43.75782" lon="6.17735">
        <ele>470</ele>
        <time>2011-07-10T11:18:07Z</time>
      </trkpt>
      <trkpt lat="43.75782" lon="6.17717">
        <ele>470</ele>
        <time>2011-07-10T11:18:16.998Z</time>
      </trkpt>
      <trkpt lat="43.75782" lon="6.17701">
        <ele>470</ele>
        <time>2011-07-10T11:18:27Z</time>
      </trkpt>
      <trkpt lat="43.75782" lon="6.17687">
        <ele>470</ele>
        <time>2011-07-10T11:18:36.998Z</time>
      </trkpt>
      <trkpt lat="43.75783" lon="6.17672">
        <ele>470</ele>
        <time>2011-07-10T11:18:46.993Z</time>
      </trkpt>
      <trkpt lat="43.75782" lon="6.17661">
        <ele>470</ele>
        <time>2011-07-10T11:18:57.001Z</time>
      </trkpt>
      <trkpt lat="43.75777" lon="6.17647">
        <ele>470</ele>
        <time>2011-07-10T11:19:07.001Z</time>
      </trkpt>
      <trkpt lat="43.75777" lon="6.1763">
        <ele>470</ele>
        <time>2011-07-10T11:19:17.004Z</time>
      </trkpt>
      <trkpt lat="43.75778" lon="6.17611">
        <ele>470</ele>
        <time>2011-07-10T11:19:26.995Z</time>
      </trkpt>
      <trkpt lat="43.75777" lon="6.17594">
        <ele>470</ele>
        <time>2011-07-10T11:19:37.001Z</time>
      </trkpt>
      <trkpt lat="43.75778" lon="6.17577">
        <ele>470</ele>
        <time>2011-07-10T11:19:47.001Z</time>
      </trkpt>
      <trkpt lat="43.75779" lon="6.17556">
        <ele>470</ele>
        <time>2011-07-10T11:19:56.998Z</time>
      </trkpt>
      <trkpt lat="43.75779" lon="6.17539">
        <ele>470</ele>
        <time>2011-07-10T11:20:07.001Z</time>
      </trkpt>
      <trkpt lat="43.75782" lon="6.1752">
        <ele>470</ele>
        <time>2011-07-10T11:20:17.001Z</time>
      </trkpt>
      <trkpt lat="43.75785" lon="6.175">
        <ele>470</ele>
        <time>2011-07-10T11:20:27.004Z</time>
      </trkpt>
      <trkpt lat="43.75787" lon="6.1749">
        <ele>470</ele>
        <time>2011-07-10T11:20:32.001Z</time>
      </trkpt>
      <trkpt lat="43.75789" lon="6.17479">
        <ele>470</ele>
        <time>2011-07-10T11:20:37Z</time>
      </trkpt>
      <trkpt lat="43.7579" lon="6.17461">
        <ele>470</ele>
        <time>2011-07-10T11:20:47.001Z</time>
      </trkpt>
      <trkpt lat="43.7579" lon="6.17443">
        <ele>470</ele>
        <time>2011-07-10T11:20:56.998Z</time>
      </trkpt>
      <trkpt lat="43.75795" lon="6.17423">
        <ele>470</ele>
        <time>2011-07-10T11:21:07.002Z</time>
      </trkpt>
      <trkpt lat="43.75797" lon="6.17401">
        <ele>470</ele>
        <time>2011-07-10T11:21:17.004Z</time>
      </trkpt>
      <trkpt lat="43.758" lon="6.17381">
        <ele>470</ele>
        <time>2011-07-10T11:21:27.001Z</time>
      </trkpt>
      <trkpt lat="43.75802" lon="6.17361">
        <ele>470</ele>
        <time>2011-07-10T11:21:36.997Z</time>
      </trkpt>
      <trkpt lat="43.75806" lon="6.17341">
        <ele>470</ele>
        <time>2011-07-10T11:21:46.997Z</time>
      </trkpt>
      <trkpt lat="43.75809" lon="6.17321">
        <ele>470</ele>
        <time>2011-07-10T11:21:56.994Z</time>
      </trkpt>
      <trkpt lat="43.7581" lon="6.17304">
        <ele>470</ele>
        <time>2011-07-10T11:22:07Z</time>
      </trkpt>
      <trkpt lat="43.75814" lon="6.17289">
        <ele>470</ele>
        <time>2011-07-10T11:22:17.002Z</time>
      </trkpt>
      <trkpt lat="43.75818" lon="6.17273">
        <ele>470</ele>
        <time>2011-07-10T11:22:27.002Z</time>
      </trkpt>
      <trkpt lat="43.75826" lon="6.1726">
        <ele>470</ele>
        <time>2011-07-10T11:22:37Z</time>
      </trkpt>
      <trkpt lat="43.75829" lon="6.17251">
        <ele>470</ele>
        <time>2011-07-10T11:22:42.006Z</time>
      </trkpt>
      <trkpt lat="43.75831" lon="6.17232">
        <ele>470</ele>
        <time>2011-07-10T11:22:52.001Z</time>
      </trkpt>
      <trkpt lat="43.7583" lon="6.17214">
        <ele>470</ele>
        <time>2011-07-10T11:23:02.001Z</time>
      </trkpt>
      <trkpt lat="43.75834" lon="6.17196">
        <ele>470</ele>
        <time>2011-07-10T11:23:12Z</time>
      </trkpt>
      <trkpt lat="43.75836" lon="6.17186">
        <ele>470</ele>
        <time>2011-07-10T11:23:17.001Z</time>
      </trkpt>
      <trkpt lat="43.7584" lon="6.17169">
        <ele>470</ele>
        <time>2011-07-10T11:23:27Z</time>
      </trkpt>
      <trkpt lat="43.75844" lon="6.17153">
        <ele>470</ele>
        <time>2011-07-10T11:23:37Z</time>
      </trkpt>
      <trkpt lat="43.75845" lon="6.17137">
        <ele>470</ele>
        <time>2011-07-10T11:23:52.001Z</time>
      </trkpt>
      <trkpt lat="43.75847" lon="6.17125">
        <ele>470</ele>
        <time>2011-07-10T11:24:01.998Z</time>
      </trkpt>
      <trkpt lat="43.75851" lon="6.17117">
        <ele>470</ele>
        <time>2011-07-10T11:24:07.001Z</time>
      </trkpt>
      <trkpt lat="43.75854" lon="6.17108">
        <ele>470</ele>
        <time>2011-07-10T11:24:12.001Z</time>
      </trkpt>
      <trkpt lat="43.75856" lon="6.17098">
        <ele>470</ele>
        <time>2011-07-10T11:24:16.998Z</time>
      </trkpt>
      <trkpt lat="43.75858" lon="6.1708">
        <ele>470</ele>
        <time>2011-07-10T11:24:27.001Z</time>
      </trkpt>
      <trkpt lat="43.7586" lon="6.17063">
        <ele>470</ele>
        <time>2011-07-10T11:24:37.002Z</time>
      </trkpt>
      <trkpt lat="43.75863" lon="6.17042">
        <ele>470</ele>
        <time>2011-07-10T11:24:47.001Z</time>
      </trkpt>
      <trkpt lat="43.75865" lon="6.17031">
        <ele>470</ele>
        <time>2011-07-10T11:24:52.001Z</time>
      </trkpt>
      <trkpt lat="43.75866" lon="6.1702">
        <ele>470</ele>
        <time>2011-07-10T11:24:57.001Z</time>
      </trkpt>
      <trkpt lat="43.75869" lon="6.16997">
        <ele>470</ele>
        <time>2011-07-10T11:25:06.998Z</time>
      </trkpt>
      <trkpt lat="43.75871" lon="6.16986">
        <ele>470</ele>
        <time>2011-07-10T11:25:12.001Z</time>
      </trkpt>
      <trkpt lat="43.75873" lon="6.16974">
        <ele>470</ele>
        <time>2011-07-10T11:25:16.994Z</time>
      </trkpt>
      <trkpt lat="43.75874" lon="6.16953">
        <ele>470</ele>
        <time>2011-07-10T11:25:27Z</time>
      </trkpt>
      <trkpt lat="43.75878" lon="6.16937">
        <ele>470</ele>
        <time>2011-07-10T11:25:37Z</time>
      </trkpt>
      <trkpt lat="43.75884" lon="6.16929">
        <ele>470</ele>
        <time>2011-07-10T11:25:42Z</time>
      </trkpt>
      <trkpt lat="43.75888" lon="6.16921">
        <ele>470</ele>
        <time>2011-07-10T11:25:47Z</time>
      </trkpt>
      <trkpt lat="43.75889" lon="6.16902">
        <ele>470</ele>
        <time>2011-07-10T11:25:57Z</time>
      </trkpt>
      <trkpt lat="43.75894" lon="6.16886">
        <ele>470</ele>
        <time>2011-07-10T11:26:07Z</time>
      </trkpt>
      <trkpt lat="43.75897" lon="6.16868">
        <ele>470</ele>
        <time>2011-07-10T11:26:17.002Z</time>
      </trkpt>
      <trkpt lat="43.75898" lon="6.16852">
        <ele>470</ele>
        <time>2011-07-10T11:26:26.995Z</time>
      </trkpt>
      <trkpt lat="43.75901" lon="6.16837">
        <ele>470</ele>
        <time>2011-07-10T11:26:37Z</time>
      </trkpt>
      <trkpt lat="43.75902" lon="6.1682">
        <ele>470</ele>
        <time>2011-07-10T11:26:47.002Z</time>
      </trkpt>
      <trkpt lat="43.75902" lon="6.16801">
        <ele>470</ele>
        <time>2011-07-10T11:26:57.001Z</time>
      </trkpt>
      <trkpt lat="43.75902" lon="6.16782">
        <ele>470</ele>
        <time>2011-07-10T11:27:07.002Z</time>
      </trkpt>
      <trkpt lat="43.75903" lon="6.16764">
        <ele>470</ele>
        <time>2011-07-10T11:27:17Z</time>
      </trkpt>
      <trkpt lat="43.75904" lon="6.16746">
        <ele>470</ele>
        <time>2011-07-10T11:27:26.998Z</time>
      </trkpt>
      <trkpt lat="43.75905" lon="6.1673">
        <ele>470</ele>
        <time>2011-07-10T11:27:37.001Z</time>
      </trkpt>
      <trkpt lat="43.75905" lon="6.16713">
        <ele>470</ele>
        <time>2011-07-10T11:27:46.995Z</time>
      </trkpt>
      <trkpt lat="43.75903" lon="6.16697">
        <ele>470</ele>
        <time>2011-07-10T11:27:57.001Z</time>
      </trkpt>
      <trkpt lat="43.75905" lon="6.16681">
        <ele>470</ele>
        <time>2011-07-10T11:28:07Z</time>
      </trkpt>
      <trkpt lat="43.75905" lon="6.16661">
        <ele>470</ele>
        <time>2011-07-10T11:28:17.002Z</time>
      </trkpt>
      <trkpt lat="43.75902" lon="6.16652">
        <ele>470</ele>
        <time>2011-07-10T11:28:22.001Z</time>
      </trkpt>
      <trkpt lat="43.75901" lon="6.16637">
        <ele>470</ele>
        <time>2011-07-10T11:28:37.001Z</time>
      </trkpt>
      <trkpt lat="43.75902" lon="6.16618">
        <ele>470</ele>
        <time>2011-07-10T11:28:46.998Z</time>
      </trkpt>
      <trkpt lat="43.75903" lon="6.16599">
        <ele>470</ele>
        <time>2011-07-10T11:28:56.998Z</time>
      </trkpt>
      <trkpt lat="43.75903" lon="6.16582">
        <ele>470</ele>
        <time>2011-07-10T11:29:07.001Z</time>
      </trkpt>
      <trkpt lat="43.75904" lon="6.16566">
        <ele>470</ele>
        <time>2011-07-10T11:29:17.001Z</time>
      </trkpt>
      <trkpt lat="43.75911" lon="6.16549">
        <ele>470</ele>
        <time>2011-07-10T11:29:27Z</time>
      </trkpt>
      <trkpt lat="43.75914" lon="6.16539">
        <ele>470</ele>
        <time>2011-07-10T11:29:32Z</time>
      </trkpt>
      <trkpt lat="43.75916" lon="6.16529">
        <ele>470</ele>
        <time>2011-07-10T11:29:37Z</time>
      </trkpt>
      <trkpt lat="43.75924" lon="6.16513">
        <ele>470</ele>
        <time>2011-07-10T11:29:47Z</time>
      </trkpt>
      <trkpt lat="43.75927" lon="6.16502">
        <ele>470</ele>
        <time>2011-07-10T11:29:52.001Z</time>
      </trkpt>
      <trkpt lat="43.75931" lon="6.16483">
        <ele>470</ele>
        <time>2011-07-10T11:30:02.002Z</time>
      </trkpt>
      <trkpt lat="43.75934" lon="6.16467">
        <ele>470</ele>
        <time>2011-07-10T11:30:12Z</time>
      </trkpt>
      <trkpt lat="43.75937" lon="6.16452">
        <ele>470</ele>
        <time>2011-07-10T11:30:21.998Z</time>
      </trkpt>
      <trkpt lat="43.75939" lon="6.16436">
        <ele>470</ele>
        <time>2011-07-10T11:30:32Z</time>
      </trkpt>
      <trkpt lat="43.75942" lon="6.16418">
        <ele>470</ele>
        <time>2011-07-10T11:30:42.005Z</time>
      </trkpt>
      <trkpt lat="43.7594" lon="6.16398">
        <ele>470</ele>
        <time>2011-07-10T11:30:51.998Z</time>
      </trkpt>
      <trkpt lat="43.75939" lon="6.1638">
        <ele>470</ele>
        <time>2011-07-10T11:31:02.001Z</time>
      </trkpt>
      <trkpt lat="43.75942" lon="6.1636">
        <ele>470</ele>
        <time>2011-07-10T11:31:12.001Z</time>
      </trkpt>
      <trkpt lat="43.75946" lon="6.16342">
        <ele>470</ele>
        <time>2011-07-10T11:31:22.001Z</time>
      </trkpt>
      <trkpt lat="43.75951" lon="6.16332">
        <ele>470</ele>
        <time>2011-07-10T11:31:27Z</time>
      </trkpt>
      <trkpt lat="43.75954" lon="6.16321">
        <ele>470</ele>
        <time>2011-07-10T11:31:31.997Z</time>
      </trkpt>
      <trkpt lat="43.75957" lon="6.16302">
        <ele>470</ele>
        <time>2011-07-10T11:31:42Z</time>
      </trkpt>
      <trkpt lat="43.7596" lon="6.16293">
        <ele>470</ele>
        <time>2011-07-10T11:31:47Z</time>
      </trkpt>
      <trkpt lat="43.75964" lon="6.16274">
        <ele>470</ele>
        <time>2011-07-10T11:31:56.998Z</time>
      </trkpt>
      <trkpt lat="43.75968" lon="6.16256">
        <ele>470</ele>
        <time>2011-07-10T11:32:06.998Z</time>
      </trkpt>
      <trkpt lat="43.75971" lon="6.16238">
        <ele>470</ele>
        <time>2011-07-10T11:32:16.998Z</time>
      </trkpt>
      <trkpt lat="43.75971" lon="6.16223">
        <ele>470</ele>
        <time>2011-07-10T11:32:27Z</time>
      </trkpt>
      <trkpt lat="43.75974" lon="6.16211">
        <ele>470</ele>
        <time>2011-07-10T11:32:37Z</time>
      </trkpt>
      <trkpt lat="43.75978" lon="6.16195">
        <ele>470</ele>
        <time>2011-07-10T11:32:47Z</time>
      </trkpt>
      <trkpt lat="43.7598" lon="6.1618">
        <ele>470</ele>
        <time>2011-07-10T11:32:56.998Z</time>
      </trkpt>
      <trkpt lat="43.75982" lon="6.16166">
        <ele>470</ele>
        <time>2011-07-10T11:33:07Z</time>
      </trkpt>
      <trkpt lat="43.75983" lon="6.16149">
        <ele>470</ele>
        <time>2011-07-10T11:33:17.002Z</time>
      </trkpt>
      <trkpt lat="43.75985" lon="6.16133">
        <ele>470</ele>
        <time>2011-07-10T11:33:27Z</time>
      </trkpt>
      <trkpt lat="43.75986" lon="6.16117">
        <ele>470</ele>
        <time>2011-07-10T11:33:37.001Z</time>
      </trkpt>
      <trkpt lat="43.75988" lon="6.16097">
        <ele>470</ele>
        <time>2011-07-10T11:33:47.002Z</time>
      </trkpt>
      <trkpt lat="43.7599" lon="6.16086">
        <ele>470</ele>
        <time>2011-07-10T11:33:52.002Z</time>
      </trkpt>
      <trkpt lat="43.75992" lon="6.16076">
        <ele>470</ele>
        <time>2011-07-10T11:33:56.998Z</time>
      </trkpt>
      <trkpt lat="43.75993" lon="6.16064">
        <ele>470</ele>
        <time>2011-07-10T11:34:02.001Z</time>
      </trkpt>
      <trkpt lat="43.75995" lon="6.16053">
        <ele>470</ele>
        <time>2011-07-10T11:34:06.998Z</time>
      </trkpt>
      <trkpt lat="43.75999" lon="6.16034">
        <ele>470</ele>
        <time>2011-07-10T11:34:16.995Z</time>
      </trkpt>
      <trkpt lat="43.76001" lon="6.16015">
        <ele>470</ele>
        <time>2011-07-10T11:34:26.998Z</time>
      </trkpt>
      <trkpt lat="43.76" lon="6.15999">
        <ele>470</ele>
        <time>2011-07-10T11:34:37.001Z</time>
      </trkpt>
      <trkpt lat="43.75998" lon="6.15982">
        <ele>470</ele>
        <time>2011-07-10T11:34:47.001Z</time>
      </trkpt>
      <trkpt lat="43.75997" lon="6.15965">
        <ele>470</ele>
        <time>2011-07-10T11:34:57.001Z</time>
      </trkpt>
      <trkpt lat="43.75995" lon="6.15951">
        <ele>470</ele>
        <time>2011-07-10T11:35:06.998Z</time>
      </trkpt>
      <trkpt lat="43.75995" lon="6.15936">
        <ele>471</ele>
        <time>2011-07-10T11:35:16.997Z</time>
      </trkpt>
      <trkpt lat="43.75996" lon="6.15919">
        <ele>471</ele>
        <time>2011-07-10T11:35:27.001Z</time>
      </trkpt>
      <trkpt lat="43.75996" lon="6.15901">
        <ele>471</ele>
        <time>2011-07-10T11:35:37.002Z</time>
      </trkpt>
      <trkpt lat="43.75995" lon="6.15889">
        <ele>471</ele>
        <time>2011-07-10T11:35:46.998Z</time>
      </trkpt>
      <trkpt lat="43.75992" lon="6.15877">
        <ele>471</ele>
        <time>2011-07-10T11:35:57.001Z</time>
      </trkpt>
      <trkpt lat="43.7599" lon="6.15862">
        <ele>471</ele>
        <time>2011-07-10T11:36:07.002Z</time>
      </trkpt>
      <trkpt lat="43.7599" lon="6.15847">
        <ele>471</ele>
        <time>2011-07-10T11:36:17.001Z</time>
      </trkpt>
      <trkpt lat="43.7599" lon="6.1583">
        <ele>471</ele>
        <time>2011-07-10T11:36:27.001Z</time>
      </trkpt>
      <trkpt lat="43.75993" lon="6.1582">
        <ele>471</ele>
        <time>2011-07-10T11:36:36.998Z</time>
      </trkpt>
      <trkpt lat="43.75997" lon="6.15818">
        <ele>471</ele>
        <time>2011-07-10T11:36:42Z</time>
      </trkpt>
    </trkseg>
  </trk>
</gpx>